Time;durP1;ratioP1;P1;durP2;ratioP2;P2;SDS_P1;SDS_P2;PMS_P1;PMS_P2;Temp;Humidity;BMP_temperature;BMP_pressure;BME280_temperature;BME280_humidity;BME280_pressure;Samples;Min_cycle;Max_cycle;Signal;HPM_P1;HPM_P2
2021/06/17 00:00:16;;;;;;;0.13;0.13;;;;;;;24.94;54.90;101077.53;5043943;28;20086;-85
2021/06/17 00:02:42;;;;;;;0.90;0.90;;;;;;;24.92;55.10;101071.38;5041499;28;20025;-85
2021/06/17 00:05:11;;;;;;;0.08;0.08;;;;;;;24.94;55.64;101069.41;5052050;28;20036;-85
2021/06/17 00:07:38;;;;;;;0.10;0.10;;;;;;;24.91;55.45;101058.78;5050444;28;20100;-85
2021/06/17 00:10:07;;;;;;;0.13;0.13;;;;;;;24.90;55.57;101067.91;5042786;28;20044;-86
2021/06/17 00:12:34;;;;;;;0.13;0.13;;;;;;;24.87;55.57;101071.72;5054224;28;20033;-85
2021/06/17 00:15:00;;;;;;;0.10;0.10;;;;;;;24.84;55.11;101071.97;5038887;28;20033;-85
2021/06/17 00:17:27;;;;;;;0.57;0.52;;;;;;;24.82;55.30;101079.34;5053772;28;20476;-85
2021/06/17 00:19:53;;;;;;;0.20;0.20;;;;;;;24.77;55.55;101076.97;5050780;28;20041;-86
2021/06/17 00:22:20;;;;;;;0.17;0.17;;;;;;;24.74;56.04;101066.38;5044309;28;20380;-85
2021/06/17 00:24:46;;;;;;;0.10;0.10;;;;;;;24.73;55.86;101061.09;5048354;28;20033;-85
2021/06/17 00:27:12;;;;;;;0.47;0.47;;;;;;;24.69;55.68;101057.75;5040808;28;20143;-85
2021/06/17 00:29:39;;;;;;;0.10;0.10;;;;;;;24.64;55.96;101063.47;5058483;28;20476;-85
2021/06/17 00:32:06;;;;;;;0.10;0.10;;;;;;;24.63;56.42;101063.59;5045903;28;20022;-84
2021/06/17 00:34:32;;;;;;;0.25;0.25;;;;;;;24.62;55.73;101064.56;5046467;28;20040;-85
2021/06/17 00:36:59;;;;;;;0.00;0.00;;;;;;;24.63;55.87;101060.91;5039705;28;20132;-85
2021/06/17 00:39:25;;;;;;;0.10;0.10;;;;;;;24.64;55.30;101051.78;5050540;28;20025;-85
2021/06/17 00:41:51;;;;;;;0.03;0.03;;;;;;;24.65;55.26;101049.00;5040512;28;20502;-85
2021/06/17 00:44:18;;;;;;;0.20;0.20;;;;;;;24.68;55.20;101046.03;5054179;28;20104;-86
2021/06/17 00:46:44;;;;;;;0.10;0.10;;;;;;;24.72;54.49;101043.94;5040679;28;20087;-85
2021/06/17 00:49:11;;;;;;;1.10;1.05;;;;;;;24.73;54.90;101037.56;5050380;28;20052;-86
2021/06/17 00:51:37;;;;;;;0.20;0.20;;;;;;;24.76;54.26;101031.91;5038360;28;20021;-85
2021/06/17 00:54:04;;;;;;;0.43;0.35;;;;;;;24.75;54.73;101032.91;5053676;28;20059;-85
2021/06/17 00:56:31;;;;;;;0.57;0.57;;;;;;;24.76;55.11;101039.16;5042229;28;20381;-86
2021/06/17 00:58:58;;;;;;;0.20;0.20;;;;;;;24.76;55.27;101040.03;5049518;28;20033;-85
2021/06/17 01:01:25;;;;;;;0.30;0.30;;;;;;;24.74;55.46;101047.41;5051188;28;20086;-85
2021/06/17 01:03:51;;;;;;;0.10;0.10;;;;;;;24.73;55.08;101045.69;5040427;28;20107;-86
2021/06/17 01:06:17;;;;;;;0.00;0.00;;;;;;;24.72;55.26;101043.94;5043941;28;20029;-85
2021/06/17 01:14:12;;;;;;;0.10;0.10;;;;;;;24.66;56.45;101039.00;5107571;27;20213;-84
2021/06/17 01:16:44;;;;;;;0.00;0.00;;;;;;;24.62;56.16;101032.91;5091300;28;20103;-84
2021/06/17 01:22:21;;;;;;;0.22;0.22;;;;;;;24.66;55.56;101052.56;5144431;27;20572;-86
2021/06/17 01:28:06;;;;;;;0.20;0.20;;;;;;;24.78;55.36;101051.59;5094542;27;20150;-84
2021/06/17 01:30:38;;;;;;;0.00;0.00;;;;;;;24.73;55.93;101056.53;5058770;28;20384;-87
2021/06/17 01:33:05;;;;;;;0.00;0.00;;;;;;;24.75;56.15;101054.56;5067782;28;20383;-86
2021/06/17 01:35:43;;;;;;;0.20;0.20;;;;;;;24.79;55.74;101045.22;5037871;28;20028;-86
2021/06/17 01:38:11;;;;;;;0.63;0.45;;;;;;;24.83;55.74;101041.28;5062741;28;20056;-86
2021/06/17 01:40:38;;;;;;;0.08;0.08;;;;;;;24.89;55.72;101039.09;5063837;28;20052;-86
2021/06/17 01:43:06;;;;;;;0.32;0.32;;;;;;;24.94;55.71;101034.19;5054703;28;20473;-86
2021/06/17 01:45:33;;;;;;;0.28;0.28;;;;;;;24.96;55.41;101024.06;5054154;28;20033;-86
2021/06/17 01:48:04;;;;;;;0.13;0.13;;;;;;;25.03;55.32;101025.31;5058660;28;20099;-86
2021/06/17 01:50:31;;;;;;;0.20;0.20;;;;;;;25.06;54.99;101021.50;5054103;28;20029;-83
2021/06/17 01:52:59;;;;;;;0.77;0.77;;;;;;;25.10;55.06;101013.00;5034160;28;20026;-84
2021/06/17 01:55:31;;;;;;;0.10;0.10;;;;;;;25.15;54.52;101018.06;5066114;28;20119;-84
2021/06/17 01:58:02;;;;;;;0.10;0.10;;;;;;;25.16;55.22;101012.53;5057461;28;20086;-84
2021/06/17 02:00:30;;;;;;;0.10;0.10;;;;;;;25.17;54.97;101010.66;5059045;28;20032;-84
2021/06/17 02:02:58;;;;;;;0.10;0.10;;;;;;;25.17;55.18;101006.13;5064399;28;20037;-84
2021/06/17 02:05:24;;;;;;;0.20;0.20;;;;;;;25.16;55.56;101001.69;5053576;28;20030;-84
2021/06/17 02:07:51;;;;;;;0.35;0.35;;;;;;;25.16;54.88;100998.97;5064242;28;20040;-85
2021/06/17 02:10:20;;;;;;;0.10;0.10;;;;;;;25.16;54.94;100993.53;5060227;28;20033;-84
2021/06/17 02:12:47;;;;;;;0.30;0.20;;;;;;;25.15;54.38;100990.97;5056242;28;20080;-85
2021/06/17 02:15:18;;;;;;;0.80;0.70;;;;;;;25.13;55.22;100992.94;5066486;28;20027;-84
2021/06/17 02:17:48;;;;;;;0.32;0.32;;;;;;;25.12;54.64;100992.06;5054501;28;20060;-84
2021/06/17 02:20:18;;;;;;;0.10;0.10;;;;;;;25.08;54.98;100984.31;5054703;28;20056;-84
2021/06/17 02:22:46;;;;;;;0.20;0.20;;;;;;;25.01;55.00;100984.78;5044044;28;20025;-84
2021/06/17 02:25:22;;;;;;;0.10;0.10;;;;;;;24.98;55.34;100981.44;5066310;28;20113;-84
2021/06/17 02:27:56;;;;;;;0.65;0.65;;;;;;;24.89;55.89;100968.63;5056037;28;20036;-84
2021/06/17 02:30:26;;;;;;;0.20;0.20;;;;;;;24.77;56.65;100970.44;5059662;28;20048;-84
2021/06/17 02:32:57;;;;;;;1.35;0.45;;;;;;;24.72;56.33;100968.09;5064605;28;20062;-84
2021/06/17 02:35:28;;;;;;;0.80;0.80;;;;;;;24.66;56.00;100968.56;5050865;28;20158;-85
2021/06/17 02:37:58;;;;;;;0.88;0.38;;;;;;;24.60;55.85;100966.31;5055750;28;20029;-85
2021/06/17 02:40:26;;;;;;;0.13;0.13;;;;;;;24.55;56.25;100967.53;5047561;28;20147;-85
2021/06/17 02:42:54;;;;;;;0.10;0.10;;;;;;;24.50;56.53;100969.75;5037261;28;20534;-85
2021/06/17 02:45:25;;;;;;;0.20;0.20;;;;;;;24.48;55.93;100966.28;5051429;28;20120;-85
2021/06/17 02:47:51;;;;;;;0.55;0.55;;;;;;;24.44;55.96;100956.66;5042753;28;20031;-85
2021/06/17 02:50:19;;;;;;;0.20;0.20;;;;;;;24.42;55.99;100961.31;5046470;28;20039;-85
2021/06/17 02:52:46;;;;;;;0.20;0.20;;;;;;;24.41;55.62;100964.16;5050041;28;20031;-85
2021/06/17 02:55:12;;;;;;;0.57;0.57;;;;;;;24.38;56.01;100970.69;5039440;28;20036;-85
2021/06/17 03:01:36;;;;;;;0.10;0.10;;;;;;;24.45;56.12;100965.63;5140104;27;20469;-86
2021/06/17 03:04:18;;;;;;;0.10;0.10;;;;;;;24.43;55.07;100973.91;5087432;28;20124;-85
2021/06/17 03:06:50;;;;;;;0.43;0.25;;;;;;;24.42;55.03;100965.91;5097665;28;20032;-85
2021/06/17 03:09:26;;;;;;;0.13;0.13;;;;;;;24.41;55.04;100959.59;5090064;28;20028;-86
2021/06/17 03:11:56;;;;;;;1.85;0.30;;;;;;;24.36;56.00;100964.50;5097717;28;20115;-86
2021/06/17 03:14:28;;;;;;;0.30;0.30;;;;;;;24.35;55.39;100960.94;5100793;28;20364;-85
2021/06/17 03:16:56;;;;;;;;;;;;;;;24.46;55.29;100962.84;5106782;28;20028;-86
2021/06/17 03:19:25;;;;;;;0.10;0.10;;;;;;;24.27;55.92;100962.50;5094439;28;19912;-86
2021/06/17 03:21:55;;;;;;;0.10;0.10;;;;;;;24.29;55.74;100968.66;5098130;28;20451;-86
2021/06/17 03:24:26;;;;;;;0.25;0.25;;;;;;;24.23;55.71;100962.72;5100624;28;20035;-86
2021/06/17 03:26:54;;;;;;;1.17;1.10;;;;;;;24.18;55.68;100945.97;5105858;28;20028;-86
2021/06/17 03:29:24;;;;;;;0.10;0.10;;;;;;;24.18;55.71;100945.97;5093806;28;20035;-85
2021/06/17 03:31:54;;;;;;;1.38;1.27;;;;;;;24.17;55.82;100946.09;5104690;28;20051;-86
2021/06/17 03:34:20;;;;;;;0.50;0.50;;;;;;;24.15;56.08;100935.41;5096191;28;20021;-86
2021/06/17 03:36:49;;;;;;;0.20;0.20;;;;;;;24.18;55.66;100937.84;5111091;28;20032;-86
2021/06/17 03:39:18;;;;;;;0.20;0.20;;;;;;;24.17;56.02;100941.53;5109255;28;20059;-85
2021/06/17 03:41:45;;;;;;;1.38;0.95;;;;;;;24.14;55.87;100949.91;5095854;28;20181;-85
2021/06/17 03:44:13;;;;;;;3.20;0.65;;;;;;;24.14;55.85;100958.03;5101701;28;20024;-85
2021/06/17 03:46:40;;;;;;;1.85;0.75;;;;;;;24.18;55.45;100958.66;5103820;28;20378;-86
2021/06/17 03:49:07;;;;;;;0.22;0.22;;;;;;;24.18;55.95;100964.94;5093664;28;20059;-86
2021/06/17 03:51:34;;;;;;;0.50;0.50;;;;;;;24.24;55.31;100958.19;5106919;28;20107;-85
2021/06/17 03:54:00;;;;;;;0.20;0.20;;;;;;;24.30;55.00;100963.16;5096348;28;20471;-85
2021/06/17 03:56:27;;;;;;;6.47;1.15;;;;;;;24.31;55.01;100953.16;5099364;28;20119;-86
2021/06/17 03:58:53;;;;;;;0.20;0.20;;;;;;;24.34;55.14;100966.50;5090351;28;20036;-86
2021/06/17 04:01:20;;;;;;;0.63;0.63;;;;;;;24.37;55.12;100955.41;5089861;28;20472;-85
2021/06/17 04:03:48;;;;;;;0.13;0.13;;;;;;;24.41;55.07;100959.59;5095617;28;20024;-86
2021/06/17 04:06:17;;;;;;;0.65;0.65;;;;;;;24.43;55.12;100963.06;5096896;28;20036;-85
2021/06/17 04:08:48;;;;;;;0.40;0.40;;;;;;;24.49;54.73;100956.31;5097703;28;20115;-85
2021/06/17 04:11:16;;;;;;;0.37;0.37;;;;;;;24.49;55.07;100953.63;5098835;28;20511;-86
2021/06/17 04:13:44;;;;;;;0.10;0.10;;;;;;;24.49;55.33;100954.47;5076309;28;20510;-83
2021/06/17 04:16:15;;;;;;;0.10;0.10;;;;;;;24.55;55.29;100954.00;5075839;28;20480;-85
2021/06/17 04:18:44;;;;;;;0.50;0.50;;;;;;;24.59;54.56;100948.34;5089692;28;20085;-85
2021/06/17 04:21:12;;;;;;;0.10;0.10;;;;;;;24.60;54.58;100950.94;5078756;28;20033;-85
2021/06/17 04:23:41;;;;;;;0.17;0.17;;;;;;;24.60;55.21;100945.50;5076016;28;20029;-85
2021/06/17 04:26:08;;;;;;;0.20;0.20;;;;;;;24.65;54.70;100953.28;5076986;28;20029;-85
2021/06/17 04:28:35;;;;;;;0.43;0.43;;;;;;;24.67;54.76;100951.34;5085100;28;20163;-86
2021/06/17 04:31:02;;;;;;;0.13;0.13;;;;;;;24.68;54.36;100951.22;5076983;28;20071;-85
2021/06/17 04:33:29;;;;;;;0.57;0.57;;;;;;;24.68;54.86;100944.94;5092589;28;20021;-86
2021/06/17 04:35:59;;;;;;;0.30;0.30;;;;;;;24.68;54.63;100944.94;5075603;28;20029;-86
2021/06/17 04:38:27;;;;;;;0.10;0.10;;;;;;;24.72;54.62;100943.72;5100515;22;20036;-85
2021/06/17 04:40:54;;;;;;;0.20;0.20;;;;;;;24.74;54.49;100947.16;5095344;28;20067;-84
2021/06/17 04:43:22;;;;;;;0.13;0.13;;;;;;;24.80;54.24;100943.97;5096768;28;20029;-85
2021/06/17 04:45:51;;;;;;;0.57;0.57;;;;;;;24.82;54.37;100946.56;5096841;28;20111;-84
2021/06/17 04:48:18;;;;;;;0.60;0.60;;;;;;;24.85;54.00;100943.63;5094415;28;20055;-84
2021/06/17 04:50:45;;;;;;;0.20;0.20;;;;;;;24.87;54.21;100939.81;5076872;28;20044;-85
2021/06/17 04:53:14;;;;;;;0.70;0.70;;;;;;;24.91;54.06;100939.56;5076341;28;20102;-85
2021/06/17 04:58:35;;;;;;;0.63;0.63;;;;;;;24.98;53.96;100935.38;5123485;27;20138;-85
2021/06/17 05:01:05;;;;;;;0.22;0.22;;;;;;;25.00;54.08;100928.84;5092425;28;20043;-84
2021/06/17 05:03:31;;;;;;;0.32;0.32;;;;;;;25.00;53.95;100928.84;5091268;28;20541;-84
2021/06/17 05:05:59;;;;;;;0.20;0.20;;;;;;;25.06;53.91;100938.34;5092198;28;20032;-84
2021/06/17 05:11:04;;;;;;;0.20;0.20;;;;;;;25.14;53.42;100930.44;5128205;27;20194;-83
2021/06/17 05:13:31;;;;;;;0.10;0.10;;;;;;;25.22;53.30;100928.97;5112768;28;20067;-83
2021/06/17 05:16:01;;;;;;;0.13;0.13;;;;;;;25.29;52.97;100932.91;5112916;28;20089;-85
2021/06/17 05:18:28;;;;;;;0.40;0.40;;;;;;;25.29;53.05;100932.91;5112194;28;20093;-85
2021/06/17 05:20:55;;;;;;;0.73;0.32;;;;;;;25.24;53.85;100935.97;5111872;28;20031;-83
2021/06/17 05:23:22;;;;;;;0.32;0.32;;;;;;;25.37;53.07;100938.59;5111448;28;20362;-86
2021/06/17 05:25:51;;;;;;;0.38;0.38;;;;;;;25.39;53.03;100936.63;5111925;28;20077;-86
2021/06/17 05:28:21;;;;;;;0.38;0.38;;;;;;;25.46;53.13;100942.41;5111598;28;20085;-83
2021/06/17 05:30:49;;;;;;;0.82;0.82;;;;;;;25.50;52.75;100949.31;5112018;28;20028;-85
2021/06/17 05:33:16;;;;;;;0.35;0.35;;;;;;;25.56;52.90;100946.09;5111815;28;20051;-83
2021/06/17 05:35:44;;;;;;;0.20;0.20;;;;;;;25.66;52.62;100943.50;5111916;28;20020;-84
2021/06/17 05:38:10;;;;;;;0.30;0.30;;;;;;;25.73;52.32;100941.97;5111730;28;20111;-84
2021/06/17 05:40:36;;;;;;;0.20;0.20;;;;;;;25.78;52.54;100945.19;5112063;28;20032;-89
2021/06/17 05:43:03;;;;;;;1.35;0.45;;;;;;;25.87;52.45;100951.72;5111402;28;20028;-87
2021/06/17 05:45:29;;;;;;;0.20;0.20;;;;;;;25.92;52.81;100944.03;5111545;28;20035;-85
2021/06/17 05:47:55;;;;;;;0.25;0.25;;;;;;;26.00;52.80;100943.38;5111361;28;20030;-84
2021/06/17 05:50:22;;;;;;;0.10;0.10;;;;;;;26.06;52.28;100942.91;5111023;28;20114;-84
2021/06/17 05:52:49;;;;;;;0.20;0.20;;;;;;;26.14;52.13;100940.41;5111372;28;20031;-86
2021/06/17 05:55:17;;;;;;;0.73;0.73;;;;;;;26.15;52.30;100939.41;5111908;28;20020;-84
2021/06/17 05:57:58;;;;;;;0.73;0.73;;;;;;;26.36;51.75;100932.28;5109483;28;20085;-85
2021/06/17 06:00:26;;;;;;;1.38;1.20;;;;;;;26.38;51.43;100930.28;5090922;28;20032;-94
2021/06/17 06:02:58;;;;;;;0.45;0.25;;;;;;;26.60;51.26;100934.75;5093843;28;20029;-95
2021/06/17 06:05:27;;;;;;;0.50;0.50;;;;;;;26.69;50.84;100933.91;5092101;28;20025;-85
2021/06/17 06:07:59;;;;;;;13.80;1.17;;;;;;;26.88;51.24;100924.19;5092181;28;20110;-85
2021/06/17 06:10:27;;;;;;;0.20;0.20;;;;;;;26.94;50.75;100923.66;5091753;28;20400;-87
2021/06/17 06:12:53;;;;;;;0.25;0.25;;;;;;;27.17;50.37;100931.66;5091411;28;20467;-85
2021/06/17 06:15:20;;;;;;;0.50;0.50;;;;;;;27.28;50.42;100939.69;5090195;28;20451;-86
2021/06/17 06:17:46;;;;;;;0.15;0.15;;;;;;;27.34;50.27;100946.44;5090654;28;20039;-85
2021/06/17 06:20:13;;;;;;;0.32;0.32;;;;;;;27.39;50.40;100952.31;5089488;28;20037;-82
2021/06/17 06:22:40;;;;;;;3.10;0.85;;;;;;;27.40;50.26;100960.41;5076149;28;20025;-84
2021/06/17 06:25:06;;;;;;;0.22;0.22;;;;;;;27.32;50.75;100968.34;5076484;28;20135;-84
2021/06/17 06:27:33;;;;;;;1.35;0.65;;;;;;;27.39;50.33;100974.09;5076463;28;20047;-85
2021/06/17 06:30:02;;;;;;;0.45;0.45;;;;;;;27.46;50.44;100979.88;5076512;28;20031;-85
2021/06/17 06:32:29;;;;;;;0.30;0.30;;;;;;;27.39;50.69;100985.84;5077423;28;20109;-83
2021/06/17 06:34:58;;;;;;;0.25;0.25;;;;;;;27.49;49.80;100998.66;5075159;28;20024;-84
2021/06/17 06:37:26;;;;;;;0.30;0.30;;;;;;;27.48;50.24;100999.63;5077377;28;20029;-85
2021/06/17 06:39:52;;;;;;;0.17;0.17;;;;;;;27.49;49.88;101006.81;5077161;28;20024;-85
2021/06/17 06:42:18;;;;;;;0.70;0.57;;;;;;;27.54;49.91;101004.53;5076786;28;20103;-86
2021/06/17 06:44:44;;;;;;;0.25;0.25;;;;;;;27.54;48.72;101004.53;5075394;28;20037;-83
2021/06/17 06:47:10;;;;;;;2.03;1.02;;;;;;;27.64;48.21;101015.44;5076314;28;20021;-84
2021/06/17 06:49:37;;;;;;;0.57;0.57;;;;;;;27.64;47.91;101010.00;5067466;28;20029;-83
2021/06/17 06:52:03;;;;;;;0.20;0.20;;;;;;;27.70;46.77;101021.22;5066070;28;20048;-83
2021/06/17 06:54:30;;;;;;;0.32;0.32;;;;;;;27.84;46.08;101010.91;5064881;28;20472;-83
2021/06/17 06:56:56;;;;;;;2.40;2.03;;;;;;;27.93;46.66;101024.56;5075574;28;20033;-84
2021/06/17 06:59:22;;;;;;;0.45;0.45;;;;;;;27.98;46.35;101028.75;5075418;28;20101;-84
2021/06/17 07:01:49;;;;;;;0.93;0.93;;;;;;;28.09;46.40;101031.38;5075455;28;20479;-85
2021/06/17 07:04:15;;;;;;;0.22;0.22;;;;;;;27.98;46.01;101045.09;5076352;28;20074;-85
2021/06/17 07:06:42;;;;;;;0.30;0.30;;;;;;;27.76;45.88;101031.56;5076242;28;20078;-85
2021/06/17 07:09:08;;;;;;;1.45;1.15;;;;;;;27.64;45.75;101031.78;5075753;28;20064;-85
2021/06/17 07:11:36;;;;;;;1.95;0.52;;;;;;;27.43;45.95;101047.19;5076065;28;20357;-85
2021/06/17 07:14:04;;;;;;;0.30;0.30;;;;;;;27.66;45.91;101030.66;5074206;28;20475;-85
2021/06/17 07:16:30;;;;;;;1.27;1.17;;;;;;;27.88;46.05;101039.63;5075798;28;20032;-85
2021/06/17 07:18:56;;;;;;;0.22;0.22;;;;;;;27.93;46.24;101037.31;5075946;28;20025;-83
2021/06/17 07:21:23;;;;;;;0.73;0.73;;;;;;;28.04;46.42;101039.97;5074006;28;20032;-83
2021/06/17 07:23:50;;;;;;;4.75;1.85;;;;;;;27.95;46.57;101038.03;5075590;28;20032;-85
2021/06/17 07:26:19;;;;;;;0.13;0.13;;;;;;;28.30;46.63;101028.53;5075133;28;20463;-85
2021/06/17 07:28:46;;;;;;;0.10;0.10;;;;;;;28.04;45.68;101012.72;5074923;28;20476;-84
2021/06/17 07:31:12;;;;;;;0.45;0.40;;;;;;;28.20;45.79;101016.75;5067288;28;20036;-84
2021/06/17 07:33:38;;;;;;;0.73;0.40;;;;;;;28.02;45.20;101008.41;5064802;28;20040;-83
2021/06/17 07:36:05;;;;;;;7.57;1.20;;;;;;;27.90;45.32;101008.53;5065224;28;20036;-83
2021/06/17 07:38:32;;;;;;;0.40;0.40;;;;;;;28.16;45.41;101037.13;5078413;22;20080;-84
2021/06/17 07:41:12;;;;;;;0.20;0.20;;;;;;;28.20;46.07;101049.44;5034251;28;20506;-84
2021/06/17 07:43:39;;;;;;;1.85;1.45;;;;;;;28.21;45.91;101056.63;5032026;28;20236;-85
2021/06/17 07:46:05;;;;;;;0.10;0.10;;;;;;;28.28;45.92;101052.34;5031480;28;20148;-85
2021/06/17 07:48:32;;;;;;;0.05;0.05;;;;;;;28.46;45.84;101043.44;5036373;28;20021;-84
2021/06/17 07:50:59;;;;;;;0.70;0.52;;;;;;;28.67;45.42;101046.91;5049410;28;20033;-85
2021/06/17 07:53:25;;;;;;;0.10;0.10;;;;;;;28.67;45.98;101037.84;5052323;28;20498;-85
2021/06/17 07:55:51;;;;;;;0.35;0.35;;;;;;;28.29;45.88;101025.94;5045121;28;20039;-86
2021/06/17 07:58:18;;;;;;;0.17;0.17;;;;;;;28.04;46.49;101025.50;5045700;28;20030;-85
2021/06/17 08:00:44;;;;;;;0.10;0.10;;;;;;;28.33;46.31;101020.06;5042311;28;20037;-84
2021/06/17 08:03:11;;;;;;;0.40;0.40;;;;;;;28.31;46.40;101008.44;5049148;28;20036;-88
2021/06/17 08:05:37;;;;;;;0.60;0.60;;;;;;;28.57;45.93;101003.28;5054768;28;20065;-84
2021/06/17 08:08:03;;;;;;;0.10;0.10;;;;;;;28.82;45.72;100991.94;5054917;28;20116;-86
2021/06/17 08:10:30;;;;;;;0.15;0.15;;;;;;;29.17;45.29;100988.56;5054526;28;20095;-84
2021/06/17 08:12:56;;;;;;;0.10;0.10;;;;;;;29.20;45.06;100992.84;5054721;28;20033;-86
2021/06/17 08:15:22;;;;;;;0.00;0.00;;;;;;;29.65;44.17;100981.16;5054575;28;20405;-86
2021/06/17 08:17:49;;;;;;;0.10;0.10;;;;;;;29.78;43.93;100972.59;5054046;28;20095;-83
2021/06/17 08:20:15;;;;;;;0.10;0.10;;;;;;;30.01;43.59;100981.25;5053947;28;20035;-83
2021/06/17 08:22:42;;;;;;;0.10;0.10;;;;;;;30.10;43.08;100979.47;5054207;28;20035;-84
2021/06/17 08:25:10;;;;;;;0.05;0.05;;;;;;;29.96;42.41;100978.13;5054567;28;20178;-84
2021/06/17 08:27:36;;;;;;;0.40;0.40;;;;;;;29.96;42.46;100964.47;5054016;28;20387;-85
2021/06/17 08:30:07;;;;;;;0.35;0.35;;;;;;;30.25;41.92;100960.66;5053754;28;20115;-85
2021/06/17 08:32:33;;;;;;;0.32;0.32;;;;;;;30.21;41.76;100945.59;5053943;28;20033;-85
2021/06/17 08:34:59;;;;;;;0.10;0.10;;;;;;;30.36;41.95;100947.75;5054228;28;20422;-85
2021/06/17 08:37:26;;;;;;;0.10;0.10;;;;;;;30.34;41.80;100943.31;5053798;28;20099;-85
2021/06/17 08:39:55;;;;;;;0.00;0.00;;;;;;;30.54;41.81;100942.28;5053798;28;20107;-85
2021/06/17 08:42:26;;;;;;;0.00;0.00;;;;;;;30.68;42.23;100949.06;5054044;28;20032;-83
2021/06/17 08:44:54;;;;;;;0.10;0.10;;;;;;;30.72;42.22;100961.38;5053368;28;20036;-84
2021/06/17 08:47:21;;;;;;;0.10;0.10;;;;;;;30.75;42.94;100961.06;5053579;28;20515;-83
2021/06/17 08:49:51;;;;;;;0.10;0.10;;;;;;;30.72;43.06;100958.66;5050678;28;20036;-85
2021/06/17 08:52:19;;;;;;;0.10;0.10;;;;;;;30.76;43.07;100940.91;5042860;28;20183;-85
2021/06/17 08:54:45;;;;;;;0.10;0.10;;;;;;;30.79;42.64;100918.69;5044237;28;20037;-86
2021/06/17 08:57:13;;;;;;;0.05;0.05;;;;;;;30.82;42.60;100918.38;5047185;28;20123;-86
2021/06/17 08:59:41;;;;;;;0.20;0.20;;;;;;;30.86;42.72;100913.47;5052948;28;20028;-86
2021/06/17 09:02:08;;;;;;;0.75;0.47;;;;;;;30.96;43.42;100915.03;5053318;28;20500;-83
2021/06/17 09:04:35;;;;;;;0.30;0.30;;;;;;;31.09;43.08;100908.28;5046143;28;20036;-83
2021/06/17 09:07:07;;;;;;;0.30;0.30;;;;;;;31.20;43.19;100905.25;5046913;28;20029;-85
2021/06/17 09:09:37;;;;;;;0.10;0.10;;;;;;;31.17;43.25;100894.66;5044491;28;20122;-84
2021/06/17 09:12:05;;;;;;;0.00;0.00;;;;;;;31.26;43.73;100915.53;5048239;28;20037;-88
2021/06/17 09:14:31;;;;;;;0.20;0.20;;;;;;;31.40;43.43;100921.41;5052647;28;20454;-83
2021/06/17 09:17:00;;;;;;;0.15;0.15;;;;;;;31.37;42.03;100925.34;5053763;28;20027;-87
2021/06/17 09:19:48;;;;;;;0.10;0.10;;;;;;;31.41;42.23;100925.88;5053265;28;20112;-84
2021/06/17 09:22:17;;;;;;;0.00;0.00;;;;;;;31.17;44.18;100926.63;5053529;28;20364;-87
2021/06/17 09:24:46;;;;;;;0.13;0.13;;;;;;;31.14;43.66;100927.81;5052701;28;20021;-85
2021/06/17 09:27:24;;;;;;;0.10;0.10;;;;;;;31.11;45.00;100936.34;5042014;28;20427;-86
2021/06/17 09:29:54;;;;;;;0.10;0.10;;;;;;;31.01;44.84;100933.69;5041673;28;20560;-86
2021/06/17 09:32:30;;;;;;;0.00;0.00;;;;;;;30.96;45.51;100941.53;5042762;28;20021;-83
2021/06/17 09:34:57;;;;;;;0.13;0.13;;;;;;;30.82;45.20;100962.16;5033093;28;20140;-85
2021/06/17 09:37:38;;;;;;;0.15;0.15;;;;;;;30.84;45.99;100968.31;5032197;28;20030;-87
2021/06/17 09:40:26;;;;;;;0.10;0.10;;;;;;;30.80;45.15;100975.97;5043449;28;20365;-84
2021/06/17 09:42:56;;;;;;;1.05;0.35;;;;;;;30.70;46.11;100985.31;5043563;28;20053;-86
2021/06/17 09:45:24;;;;;;;0.20;0.20;;;;;;;30.65;45.21;100985.78;5045594;28;20595;-85
2021/06/17 09:47:50;;;;;;;0.10;0.10;;;;;;;30.59;44.83;100975.47;5041767;28;20386;-86
2021/06/17 09:50:22;;;;;;;0.40;0.40;;;;;;;30.68;45.34;100979.13;5043321;28;20021;-85
2021/06/17 09:52:48;;;;;;;;;;;;;;;30.92;45.14;100984.78;5044085;28;20043;-84
2021/06/17 09:58:42;;;;;;;0.00;0.00;;;;;;;31.28;45.17;100987.41;5161820;27;20367;-85
2021/06/17 10:01:16;;;;;;;0.10;0.10;;;;;;;31.49;42.89;100986.16;5152980;27;20035;-87
2021/06/17 10:04:02;;;;;;;0.43;0.43;;;;;;;31.83;42.33;100985.25;5152876;27;20027;-84
2021/06/17 10:06:29;;;;;;;0.10;0.10;;;;;;;31.90;42.22;100978.09;5152419;27;20080;-86
2021/06/17 10:08:56;;;;;;;0.00;0.00;;;;;;;31.85;40.98;100980.47;5151267;27;20038;-88
2021/06/17 10:11:23;;;;;;;0.52;0.32;;;;;;;32.02;41.83;100981.34;5152601;27;20099;-85
2021/06/17 10:13:50;;;;;;;0.10;0.10;;;;;;;31.98;42.02;100981.84;5152841;27;20466;-84
2021/06/17 10:16:18;;;;;;;0.80;0.80;;;;;;;32.06;42.30;100976.41;5152414;27;20037;-87
2021/06/17 10:18:45;;;;;;;4.03;1.38;;;;;;;32.16;42.12;100990.78;5152365;27;20019;-86
2021/06/17 10:21:14;;;;;;;0.10;0.10;;;;;;;32.17;41.62;100989.75;5150966;27;20526;-87
2021/06/17 10:23:43;;;;;;;0.15;0.15;;;;;;;32.58;41.36;100994.44;5151851;27;20039;-87
2021/06/17 10:26:09;;;;;;;0.00;0.00;;;;;;;32.77;41.64;100996.00;5152230;27;20031;-86
2021/06/17 10:28:47;;;;;;;0.20;0.20;;;;;;;32.90;39.91;101007.31;5152309;22;20384;-87
2021/06/17 10:31:50;;;;;;;1.15;1.05;;;;;;;33.05;39.77;101004.69;5082747;28;20024;-83
2021/06/17 10:37:25;;;;;;;0.15;0.15;;;;;;;33.20;40.48;101007.59;5118147;27;20525;-85
2021/06/17 10:39:58;;;;;;;0.13;0.13;;;;;;;33.06;39.19;101005.56;5105030;28;20394;-83
2021/06/17 10:48:14;;;;;;;0.00;0.00;;;;;;;33.03;39.92;101030.63;5090686;27;20187;-85
2021/06/17 10:56:16;;;;;;;0.30;0.30;;;;;;;33.33;39.25;101029.00;5090947;27;20159;-85
2021/06/17 11:14:57;;;;;;;0.05;0.05;;;;;;;33.60;36.76;101045.22;5090380;27;20626;-86
2021/06/17 11:20:12;;;;;;;0.65;0.47;;;;;;;33.89;35.24;101046.53;5113292;27;20206;-86
2021/06/17 11:22:43;;;;;;;0.30;0.30;;;;;;;33.80;34.68;101045.69;5092307;28;20134;-86
2021/06/17 11:36:05;;;;;;;1.92;1.50;;;;;;;33.43;35.64;101045.28;5090099;27;20170;-86
2021/06/17 11:38:33;;;;;;;0.00;0.00;;;;;;;33.82;35.54;101050.00;5086327;28;20036;-86
2021/06/17 11:41:09;;;;;;;0.35;0.35;;;;;;;33.37;35.72;101055.13;5060540;28;20075;-86
2021/06/17 11:43:35;;;;;;;0.57;0.57;;;;;;;33.51;35.26;101070.00;5056105;28;20031;-86
2021/06/17 11:46:01;;;;;;;0.52;0.22;;;;;;;33.09;35.11;101073.84;5058575;28;20029;-86
2021/06/17 11:48:29;;;;;;;0.00;0.00;;;;;;;33.25;36.21;101070.22;5061485;28;20028;-86
2021/06/17 11:50:55;;;;;;;0.47;0.25;;;;;;;33.11;34.21;101084.63;5056225;28;20029;-86
2021/06/17 11:53:24;;;;;;;1.45;0.40;;;;;;;33.60;34.95;101072.69;5056744;28;20029;-86
2021/06/17 11:55:54;;;;;;;1.65;1.45;;;;;;;33.16;35.45;101083.09;5059405;28;20037;-85
2021/06/17 11:58:26;;;;;;;0.43;0.43;;;;;;;33.39;35.16;101077.75;5059365;28;20029;-85
2021/06/17 12:00:53;;;;;;;1.55;1.35;;;;;;;33.17;34.11;101078.44;5058854;28;20025;-86
2021/06/17 12:03:22;;;;;;;0.10;0.10;;;;;;;33.23;34.81;101089.59;5070859;28;20037;-86
2021/06/17 12:05:49;;;;;;;0.93;0.30;;;;;;;33.21;34.17;101099.03;5070884;28;20117;-85
2021/06/17 12:08:15;;;;;;;0.22;0.22;;;;;;;33.16;34.34;101077.59;5070259;28;20040;-85
2021/06/17 12:10:42;;;;;;;0.00;0.00;;;;;;;33.38;34.31;101088.91;5070668;28;20044;-85
2021/06/17 12:13:10;;;;;;;0.10;0.10;;;;;;;33.60;34.92;101086.44;5068387;28;20029;-85
2021/06/17 12:18:17;;;;;;;0.00;0.00;;;;;;;33.53;34.64;101095.38;5079704;27;20574;-84
2021/06/17 12:20:45;;;;;;;0.10;0.10;;;;;;;33.78;34.37;101086.22;5060164;28;20083;-86
2021/06/17 12:23:20;;;;;;;0.10;0.10;;;;;;;33.42;35.15;101106.75;5049627;28;20041;-86
2021/06/17 12:26:08;;;;;;;0.10;0.10;;;;;;;33.28;35.40;101104.69;5056929;28;20404;-86
2021/06/17 12:28:58;;;;;;;0.10;0.10;;;;;;;33.51;34.35;101097.47;5049708;28;20039;-83
2021/06/17 12:31:27;;;;;;;1.85;0.75;;;;;;;33.44;35.99;101106.59;5029388;28;20025;-85
2021/06/17 12:34:19;;;;;;;0.30;0.30;;;;;;;33.79;36.13;101107.16;5049992;28;20030;-85
2021/06/17 12:37:02;;;;;;;0.93;0.22;;;;;;;33.16;35.26;101115.16;5048514;28;20029;-85
2021/06/17 12:39:29;;;;;;;0.52;0.50;;;;;;;33.50;36.01;101112.22;5050413;28;20025;-84
2021/06/17 12:41:55;;;;;;;0.30;0.30;;;;;;;33.50;35.44;101122.38;5050156;28;20392;-87
2021/06/17 12:47:14;;;;;;;0.05;0.05;;;;;;;33.45;35.94;101117.41;5107426;27;20221;-85